createdAt,value
2022-12-25T00:00:26.666Z,71.52
2022-12-25T00:03:33.051Z,72.01
2022-12-25T00:06:41.327Z,72.21
2022-12-25T00:09:47.556Z,72.08
2022-12-25T00:12:53.861Z,71.99
2022-12-25T00:16:00.710Z,72.90
2022-12-25T00:19:06.300Z,73.01
2022-12-25T00:22:15.376Z,73.06
2022-12-25T00:25:20.960Z,72.99
2022-12-25T00:28:28.405Z,72.74
2022-12-25T00:31:34.876Z,73.13
2022-12-25T00:34:41.365Z,73.27
2022-12-25T00:37:49.538Z,73.44
2022-12-25T00:40:56.012Z,72.70
2022-12-25T00:44:01.732Z,72.40
2022-12-25T00:47:08.082Z,72.38
2022-12-25T00:50:14.419Z,72.39
2022-12-25T00:53:23.402Z,73.11
2022-12-25T00:56:29.120Z,72.73
2022-12-25T00:59:36.943Z,72.74
2022-12-25T01:02:42.442Z,72.44
2022-12-25T01:05:59.544Z,72.57
2022-12-25T01:09:25.976Z,72.22
2022-12-25T01:12:33.830Z,72.26
2022-12-25T01:15:40.222Z,72.26
2022-12-25T01:18:46.883Z,72.01
2022-12-25T01:21:52.249Z,72.10
2022-12-25T01:25:01.638Z,72.30
2022-12-25T01:28:07.472Z,72.25
2022-12-25T01:31:17.443Z,72.21
2022-12-25T01:34:23.307Z,72.23
2022-12-25T01:37:29.891Z,72.15
2022-12-25T01:40:40.127Z,72.27
2022-12-25T01:44:08.995Z,72.26
2022-12-25T01:47:15.559Z,72.82
2022-12-25T01:50:23.884Z,72.85
2022-12-25T01:53:30.621Z,72.71
2022-12-25T01:56:46.519Z,72.66
2022-12-25T01:59:53.004Z,72.38
2022-12-25T02:03:01.220Z,72.03
2022-12-25T02:06:07.979Z,71.88
2022-12-25T02:09:14.632Z,71.32
2022-12-25T02:12:28.765Z,71.67
2022-12-25T02:15:53.000Z,70.94
2022-12-25T02:19:12.369Z,70.57
2022-12-25T02:22:41.397Z,70.64
2022-12-25T02:26:17.549Z,70.80
2022-12-25T02:29:36.611Z,70.69
2022-12-25T02:33:18.906Z,70.77
2022-12-25T02:36:32.143Z,70.91
2022-12-25T02:40:01.233Z,70.63
2022-12-25T02:43:34.388Z,70.45
2022-12-25T02:46:59.380Z,70.38
2022-12-25T02:50:25.111Z,70.37
2022-12-25T02:53:56.168Z,70.71
2022-12-25T02:57:25.032Z,70.72
2022-12-25T03:00:48.631Z,70.48
2022-12-25T03:04:18.519Z,70.25
2022-12-25T03:07:29.929Z,70.06
2022-12-25T03:10:58.885Z,70.15
2022-12-25T03:14:22.658Z,70.03
2022-12-25T03:17:30.574Z,70.08
2022-12-25T03:20:57.009Z,69.79
2022-12-25T03:24:17.522Z,69.91
2022-12-25T03:27:23.764Z,69.26
2022-12-25T03:30:56.792Z,68.93
2022-12-25T03:34:45.421Z,69.05
2022-12-25T03:38:40.187Z,68.96
2022-12-25T03:42:09.308Z,69.47
2022-12-25T03:45:44.724Z,69.41
2022-12-25T03:49:18.866Z,69.75
2022-12-25T03:52:41.878Z,69.67
2022-12-25T03:56:09.957Z,69.94
2022-12-25T03:59:31.749Z,69.36
2022-12-25T04:02:55.721Z,69.17
2022-12-25T04:06:17.263Z,69.01
2022-12-25T04:09:39.756Z,68.69
2022-12-25T04:13:04.014Z,68.57
2022-12-25T04:16:27.173Z,69.09
2022-12-25T04:19:48.437Z,68.47
2022-12-25T04:23:10.576Z,68.31
2022-12-25T04:26:46.491Z,67.88
2022-12-25T04:30:10.152Z,68.31
2022-12-25T04:33:30.987Z,67.97
2022-12-25T04:36:37.275Z,67.88
2022-12-25T04:39:42.701Z,67.75
2022-12-25T04:42:49.048Z,68.05
2022-12-25T04:46:00.647Z,67.93
2022-12-25T04:49:06.950Z,68.13
2022-12-25T04:52:12.472Z,68.10
2022-12-25T04:55:18.754Z,67.47
2022-12-25T04:58:24.178Z,67.66
2022-12-25T05:01:33.297Z,67.86
2022-12-25T05:04:38.722Z,67.85
2022-12-25T05:07:44.927Z,67.25
2022-12-25T05:10:50.970Z,67.35
2022-12-25T05:13:57.454Z,67.33
2022-12-25T05:17:05.708Z,67.43
2022-12-25T05:20:12.248Z,67.11
2022-12-25T05:23:17.612Z,67.49
2022-12-25T05:26:27.253Z,67.62
2022-12-25T05:29:32.579Z,67.27
2022-12-25T05:32:41.716Z,67.30
2022-12-25T05:35:47.096Z,67.04
2022-12-25T05:38:54.315Z,67.41
2022-12-25T05:41:59.785Z,67.30
2022-12-25T05:45:06.503Z,67.85
2022-12-25T05:48:15.377Z,68.09
2022-12-25T05:51:21.679Z,68.15
2022-12-25T05:54:27.098Z,68.20
2022-12-25T05:57:34.445Z,67.84
2022-12-25T06:00:40.935Z,68.28
2022-12-25T06:03:50.433Z,68.32
2022-12-25T06:06:56.851Z,68.88
2022-12-25T06:10:03.363Z,68.96
2022-12-25T06:13:08.927Z,69.18
2022-12-25T06:16:15.957Z,68.32
2022-12-25T06:19:24.724Z,68.13
2022-12-25T06:22:32.446Z,69.32
2022-12-25T06:25:37.931Z,69.82
2022-12-25T06:28:45.053Z,69.82
2022-12-25T06:31:50.627Z,69.25
2022-12-25T06:34:59.884Z,69.34
2022-12-25T06:38:05.293Z,68.21
2022-12-25T06:41:14.890Z,68.41
2022-12-25T06:44:20.496Z,69.10
2022-12-25T06:47:27.106Z,69.14
2022-12-25T06:50:37.436Z,69.18
2022-12-25T06:53:43.664Z,68.80
2022-12-25T06:56:49.980Z,68.65
2022-12-25T06:59:56.476Z,69.86
2022-12-25T07:03:02.447Z,69.41
2022-12-25T07:06:12.531Z,69.94
2022-12-25T07:09:18.129Z,69.14
2022-12-25T07:12:27.657Z,69.42
2022-12-25T07:15:33.050Z,69.34
2022-12-25T07:18:39.496Z,70.18
2022-12-25T07:21:47.689Z,70.85
2022-12-25T07:24:53.909Z,70.53
2022-12-25T07:27:59.492Z,69.53
2022-12-25T07:31:07.790Z,69.65
2022-12-25T07:34:13.379Z,69.73
2022-12-25T07:37:22.386Z,70.58
2022-12-25T07:40:27.851Z,70.52
2022-12-25T07:43:34.102Z,70.42
2022-12-25T07:46:39.509Z,70.18
2022-12-25T07:49:45.765Z,71.16
2022-12-25T07:52:53.904Z,71.30
2022-12-25T07:56:02.835Z,70.73
2022-12-25T07:59:08.184Z,71.39
2022-12-25T08:02:14.710Z,70.25
2022-12-25T08:05:20.740Z,70.47
2022-12-25T08:08:29.990Z,70.94
2022-12-25T08:11:36.521Z,70.65
2022-12-25T08:14:42.836Z,70.86
2022-12-25T08:17:48.302Z,69.96
2022-12-25T08:20:54.557Z,69.68
2022-12-25T08:24:03.323Z,68.98
2022-12-25T08:27:09.551Z,68.99
2022-12-25T08:30:15.779Z,68.89
2022-12-25T08:33:22.118Z,68.89
2022-12-25T08:36:28.596Z,68.35
2022-12-25T08:39:37.668Z,68.54
2022-12-25T08:42:43.073Z,67.77
2022-12-25T08:45:50.556Z,67.74
2022-12-25T08:48:56.912Z,67.73
2022-12-25T08:52:03.164Z,67.45
2022-12-25T08:55:12.335Z,67.53
2022-12-25T08:58:19.265Z,66.66
2022-12-25T09:01:24.867Z,66.92
2022-12-25T09:04:31.817Z,67.60
2022-12-25T09:07:37.180Z,67.58
2022-12-25T09:10:46.457Z,67.78
2022-12-25T09:13:52.642Z,67.20
2022-12-25T09:16:58.893Z,67.89
2022-12-25T09:20:04.339Z,67.11
2022-12-25T09:23:14.097Z,66.92
2022-12-25T09:26:23.283Z,67.50
2022-12-25T09:29:29.559Z,67.18
2022-12-25T09:32:35.854Z,67.92
2022-12-25T09:35:42.171Z,67.43
2022-12-25T09:38:47.672Z,67.87
2022-12-25T09:42:05.060Z,67.57
2022-12-25T09:45:21.043Z,67.67
2022-12-25T09:48:31.332Z,67.65
2022-12-25T09:51:43.588Z,67.71
2022-12-25T09:55:01.082Z,66.97
2022-12-25T09:58:16.027Z,66.94
2022-12-25T10:01:42.220Z,67.25
2022-12-25T10:05:14.972Z,66.69
2022-12-25T10:09:10.090Z,66.06
2022-12-25T10:12:41.743Z,66.00
2022-12-25T10:16:10.770Z,66.01
2022-12-25T10:19:37.416Z,65.69
2022-12-25T10:22:49.893Z,65.44
2022-12-25T10:25:57.434Z,64.95
2022-12-25T10:29:16.516Z,65.12
2022-12-25T10:32:25.015Z,65.22
2022-12-25T10:35:33.823Z,64.58
2022-12-25T10:38:39.660Z,64.59
2022-12-25T10:42:11.468Z,64.16
2022-12-25T10:45:17.554Z,64.16
2022-12-25T10:48:33.007Z,63.89
2022-12-25T10:51:41.787Z,63.87
2022-12-25T10:54:48.100Z,63.72
2022-12-25T10:57:54.499Z,63.35
2022-12-25T11:01:08.862Z,63.18
2022-12-25T11:04:23.925Z,63.35
2022-12-25T11:07:30.919Z,62.98
2022-12-25T11:10:42.380Z,63.52
2022-12-25T11:13:55.691Z,63.37
2022-12-25T11:17:12.327Z,62.84
2022-12-25T11:20:24.732Z,63.27
2022-12-25T11:23:34.431Z,62.38
2022-12-25T11:26:52.218Z,62.75
2022-12-25T11:30:04.808Z,62.11
2022-12-25T11:33:17.612Z,62.78
2022-12-25T11:36:35.882Z,63.10
2022-12-25T11:39:45.424Z,62.76
2022-12-25T11:43:04.118Z,62.93
2022-12-25T11:46:24.091Z,62.66
2022-12-25T11:49:30.665Z,62.75
2022-12-25T11:52:47.445Z,62.75
2022-12-25T11:55:59.473Z,62.81
2022-12-25T11:59:19.568Z,62.19
2022-12-25T12:02:36.645Z,61.96
2022-12-25T12:05:52.658Z,61.56
2022-12-25T12:09:33.289Z,62.01
2022-12-25T12:12:54.566Z,60.91
2022-12-25T12:16:00.813Z,60.67
2022-12-25T12:19:17.348Z,60.99
2022-12-25T12:22:27.241Z,61.42
2022-12-25T12:25:44.148Z,61.00
2022-12-25T12:28:54.197Z,61.05
2022-12-25T12:32:06.990Z,61.14
2022-12-25T12:35:21.885Z,61.58
2022-12-25T12:38:29.042Z,61.35
2022-12-25T12:41:51.199Z,60.56
2022-12-25T12:45:09.755Z,60.70
2022-12-25T12:48:20.096Z,61.15
2022-12-25T12:51:40.238Z,60.55
2022-12-25T12:55:03.141Z,60.30
2022-12-25T12:58:33.940Z,60.99
2022-12-25T13:01:57.668Z,60.01
2022-12-25T13:05:11.239Z,60.02
2022-12-25T13:08:38.215Z,59.73
2022-12-25T13:11:49.824Z,59.34
2022-12-25T13:14:58.357Z,59.04
2022-12-25T13:18:09.782Z,59.46
2022-12-25T13:21:25.327Z,59.05
2022-12-25T13:24:35.131Z,58.65
2022-12-25T13:27:40.589Z,58.54
2022-12-25T13:30:49.987Z,58.05
2022-12-25T13:34:02.859Z,58.16
2022-12-25T13:37:13.387Z,58.47
2022-12-25T13:40:31.327Z,58.72
2022-12-25T13:43:35.051Z,58.44
2022-12-25T13:46:43.463Z,58.63
2022-12-25T13:49:51.363Z,59.28
2022-12-25T13:52:59.824Z,58.89
2022-12-25T13:56:06.488Z,59.15
2022-12-25T13:59:21.896Z,59.47
2022-12-25T14:02:38.423Z,59.77
2022-12-25T14:05:43.971Z,59.35
2022-12-25T14:08:52.803Z,59.26
2022-12-25T14:11:58.575Z,59.64
2022-12-25T14:15:07.885Z,60.13
2022-12-25T14:18:22.430Z,59.97
2022-12-25T14:21:35.908Z,59.95
2022-12-25T14:24:43.765Z,60.00
2022-12-25T14:27:55.275Z,60.51
2022-12-25T14:31:02.504Z,59.89
2022-12-25T14:34:22.146Z,60.39
2022-12-25T14:37:32.718Z,60.75
2022-12-25T14:40:39.087Z,59.98
2022-12-25T14:43:56.189Z,60.66
2022-12-25T14:47:20.900Z,60.46
2022-12-25T14:50:39.950Z,61.08
2022-12-25T14:53:54.822Z,60.70
2022-12-25T14:57:00.482Z,61.00
2022-12-25T15:00:23.666Z,61.47
2022-12-25T15:03:34.221Z,61.03
2022-12-25T15:06:55.210Z,61.45
2022-12-25T15:10:36.487Z,61.51
2022-12-25T15:13:29.190Z,60.96
2022-12-25T15:16:44.851Z,61.47
2022-12-25T15:19:51.380Z,61.55
2022-12-25T15:23:18.937Z,61.73
2022-12-25T15:26:25.815Z,61.89
2022-12-25T15:30:09.218Z,62.01
2022-12-25T15:32:57.761Z,61.89
2022-12-25T15:36:03.230Z,62.31
2022-12-25T15:39:12.277Z,62.04
2022-12-25T15:42:21.074Z,62.26
2022-12-25T15:45:32.465Z,62.44
2022-12-25T15:48:37.956Z,62.64
2022-12-25T15:51:46.131Z,62.67
2022-12-25T15:54:54.438Z,62.60
2022-12-25T15:58:00.968Z,62.98
2022-12-25T16:01:06.803Z,62.83
2022-12-25T16:04:12.996Z,63.10
2022-12-25T16:07:23.298Z,62.85
2022-12-25T16:10:38.407Z,63.07
2022-12-25T16:13:44.512Z,63.31
2022-12-25T16:16:50.855Z,63.94
2022-12-25T16:19:56.501Z,64.11
2022-12-25T16:23:02.703Z,64.12
2022-12-25T16:26:10.987Z,64.21
2022-12-25T16:29:17.514Z,64.52
2022-12-25T16:32:23.178Z,64.53
2022-12-25T16:35:29.497Z,64.29
2022-12-25T16:38:34.908Z,64.59
2022-12-25T16:41:44.150Z,64.51
2022-12-25T16:44:49.614Z,64.54
2022-12-25T16:47:55.868Z,64.83
2022-12-25T16:51:01.290Z,64.80
2022-12-25T16:54:08.580Z,64.86
2022-12-25T16:57:17.118Z,64.65
2022-12-25T17:00:24.686Z,64.48
2022-12-25T17:03:30.896Z,64.86
2022-12-25T17:06:37.297Z,64.66
2022-12-25T17:09:44.490Z,64.51
2022-12-25T17:12:53.664Z,64.61
2022-12-25T17:15:59.355Z,64.93
2022-12-25T17:19:12.118Z,64.66
2022-12-25T17:22:17.575Z,65.03
2022-12-25T17:25:23.890Z,64.70
2022-12-25T17:28:32.328Z,64.13
2022-12-25T17:31:38.678Z,64.41
2022-12-25T17:34:44.325Z,64.12
2022-12-25T17:37:50.609Z,64.26
2022-12-25T17:40:59.544Z,64.15
2022-12-25T17:44:08.819Z,63.76
2022-12-25T17:47:14.226Z,63.98
2022-12-25T17:50:20.616Z,64.07
2022-12-25T17:53:26.027Z,64.29
2022-12-25T17:56:33.197Z,64.25
2022-12-25T17:59:41.434Z,64.58
2022-12-25T18:02:48.027Z,64.84
2022-12-25T18:05:53.586Z,64.82
2022-12-25T18:09:01.901Z,64.91
2022-12-25T18:12:08.399Z,65.02
2022-12-25T18:15:17.630Z,64.90
2022-12-25T18:18:23.064Z,64.89
2022-12-25T18:21:30.510Z,64.70
2022-12-25T18:24:36.150Z,64.96
2022-12-25T18:27:43.486Z,64.73
2022-12-25T18:30:53.086Z,64.67
2022-12-25T18:34:25.430Z,65.08
2022-12-25T18:41:31.141Z,64.65
2022-12-25T18:44:39.248Z,64.82
2022-12-25T18:47:49.718Z,64.50
2022-12-25T18:51:02.512Z,64.47
2022-12-25T18:54:11.223Z,64.64
2022-12-25T18:57:18.131Z,64.69
2022-12-25T19:00:24.662Z,64.76
2022-12-25T19:03:33.141Z,64.50
2022-12-25T19:06:39.680Z,65.22
2022-12-25T19:09:45.280Z,65.25
2022-12-25T19:12:51.780Z,65.04
2022-12-25T19:16:02.223Z,64.86
2022-12-25T19:19:12.949Z,64.86
2022-12-25T19:22:18.565Z,64.49
2022-12-25T19:25:24.794Z,64.77
2022-12-25T19:28:30.393Z,65.20
2022-12-25T19:31:38.330Z,65.22
2022-12-25T19:34:46.580Z,64.99
2022-12-25T19:37:52.982Z,64.58
2022-12-25T19:41:04.578Z,65.13
2022-12-25T19:44:11.385Z,64.77
2022-12-25T19:47:16.859Z,64.84
2022-12-25T19:50:28.674Z,64.92
2022-12-25T19:53:34.629Z,64.68
2022-12-25T19:56:41.223Z,64.17
2022-12-25T19:59:46.612Z,64.14
2022-12-25T20:02:53.092Z,63.76
2022-12-25T20:06:01.420Z,63.76
2022-12-25T20:09:11.153Z,64.00
2022-12-25T20:12:16.738Z,63.89
2022-12-25T20:15:23.657Z,64.10
2022-12-25T20:18:29.124Z,64.27
2022-12-25T20:21:38.545Z,64.65
2022-12-25T20:24:43.955Z,64.77
2022-12-25T20:27:50.853Z,65.03
2022-12-25T20:30:59.590Z,64.76
2022-12-25T20:34:11.090Z,64.65
2022-12-25T20:37:19.524Z,64.46
2022-12-25T20:40:25.884Z,64.21
2022-12-25T20:43:32.373Z,63.98
2022-12-25T20:46:38.720Z,63.85
2022-12-25T20:49:44.290Z,64.01
2022-12-25T20:52:56.972Z,63.45
2022-12-25T20:56:02.688Z,63.29
2022-12-25T20:59:09.008Z,63.43
2022-12-25T21:02:34.620Z,63.43
2022-12-25T21:05:49.970Z,63.72
2022-12-25T21:08:58.396Z,63.68
2022-12-25T21:12:04.688Z,63.87
2022-12-25T21:15:15.324Z,63.89
2022-12-25T21:18:27.289Z,63.64
2022-12-25T21:21:32.714Z,63.83
2022-12-25T21:24:42.004Z,63.37
2022-12-25T21:27:47.409Z,63.94
2022-12-25T21:30:53.932Z,63.63
2022-12-25T21:33:58.169Z,63.88
2022-12-25T21:37:04.670Z,63.21
2022-12-25T21:40:16.616Z,63.23
2022-12-25T21:43:22.964Z,63.31
2022-12-25T21:46:33.250Z,63.38
2022-12-25T21:49:54.967Z,63.04
2022-12-25T21:53:01.105Z,63.35
2022-12-25T21:56:10.845Z,62.94
2022-12-25T21:59:20.544Z,62.95
2022-12-25T22:02:27.339Z,63.01
2022-12-25T22:05:45.879Z,62.81
2022-12-25T22:08:52.133Z,63.24
2022-12-25T22:12:16.600Z,63.58
2022-12-25T22:15:23.225Z,63.50
2022-12-25T22:18:44.488Z,63.98
2022-12-25T22:21:50.704Z,64.10
2022-12-25T22:25:01.301Z,63.65
2022-12-25T22:28:10.535Z,64.03
2022-12-25T22:31:16.004Z,64.00
2022-12-25T22:34:22.289Z,63.72
2022-12-25T22:37:27.779Z,63.46
2022-12-25T22:40:34.611Z,63.85
2022-12-25T22:44:16.042Z,64.07
2022-12-25T22:47:09.142Z,64.13
2022-12-25T22:50:16.546Z,64.20
2022-12-25T22:53:23.503Z,64.29
2022-12-25T22:56:28.916Z,64.10
2022-12-25T22:59:37.972Z,64.27
2022-12-25T23:02:44.430Z,63.93
2022-12-25T23:05:57.728Z,64.14
2022-12-25T23:09:04.542Z,64.38
2022-12-25T23:12:31.071Z,64.36
2022-12-25T23:15:36.724Z,64.09
2022-12-25T23:18:58.867Z,63.79
2022-12-25T23:22:20.412Z,63.39
2022-12-25T23:25:42.417Z,63.49
2022-12-25T23:28:59.973Z,63.81
2022-12-25T23:32:13.679Z,63.28
2022-12-25T23:35:19.256Z,63.12
2022-12-25T23:38:25.576Z,63.79
2022-12-25T23:41:31.116Z,63.78
2022-12-25T23:44:38.438Z,63.96
2022-12-25T23:47:46.617Z,63.84
2022-12-25T23:50:52.890Z,63.43
2022-12-25T23:53:58.327Z,64.52
2022-12-25T23:57:04.795Z,64.62
